createdAt,value
2018-02-02T00:00:07.374Z,20
2018-02-02T00:02:05.139Z,20
2018-02-02T00:04:04.856Z,20
2018-02-02T00:06:08.151Z,20
2018-02-02T00:08:04.852Z,20
2018-02-02T00:10:05.606Z,20
2018-02-02T00:12:05.334Z,20
2018-02-02T00:14:05.183Z,20
2018-02-02T00:16:07.990Z,20
2018-02-02T00:18:09.919Z,20
2018-02-02T00:20:08.117Z,20
2018-02-02T00:22:04.798Z,20
2018-02-02T00:24:05.485Z,20
2018-02-02T00:26:05.122Z,20
2018-02-02T00:28:04.822Z,20
2018-02-02T00:30:05.646Z,20
2018-02-02T00:32:05.355Z,20
2018-02-02T00:34:05.047Z,20
2018-02-02T00:36:04.796Z,20
2018-02-02T00:38:05.462Z,20
2018-02-02T00:40:05.396Z,20
2018-02-02T00:42:07.635Z,20
2018-02-02T00:44:07.892Z,20
2018-02-02T00:46:07.535Z,20.1
2018-02-02T00:48:10.349Z,20
2018-02-02T00:50:05.105Z,20
2018-02-02T00:52:04.875Z,20
2018-02-02T00:54:07.166Z,20
2018-02-02T00:56:05.540Z,20
2018-02-02T00:58:10.354Z,20
2018-02-02T01:00:10.280Z,20
2018-02-02T01:02:05.063Z,20
2018-02-02T01:04:05.037Z,20
2018-02-02T01:06:04.733Z,20
2018-02-02T01:08:05.459Z,20
2018-02-02T01:10:05.238Z,20
2018-02-02T01:12:07.562Z,20
2018-02-02T01:14:05.401Z,20
2018-02-02T01:16:05.188Z,20
2018-02-02T01:18:05.145Z,20
2018-02-02T01:20:04.956Z,20
2018-02-02T01:22:04.999Z,20
2018-02-02T01:24:05.032Z,20
2018-02-02T01:26:04.805Z,20
2018-02-02T01:28:10.621Z,20
2018-02-02T01:30:04.887Z,20
2018-02-02T01:32:04.653Z,20
2018-02-02T01:34:05.032Z,20
2018-02-02T01:36:09.934Z,20
2018-02-02T01:38:04.728Z,20
2018-02-02T01:40:05.489Z,20
2018-02-02T01:42:05.264Z,20.1
2018-02-02T01:44:07.568Z,20
2018-02-02T01:46:12.883Z,20
2018-02-02T01:48:04.741Z,20
2018-02-02T01:50:05.577Z,20.1
2018-02-02T01:52:05.387Z,20
2018-02-02T01:54:05.117Z,20
2018-02-02T01:56:07.472Z,20.1
2018-02-02T01:58:05.622Z,20
2018-02-02T02:00:10.498Z,20
2018-02-02T02:02:04.741Z,20
2018-02-02T02:04:05.045Z,20
2018-02-02T02:06:05.121Z,20.1
2018-02-02T02:08:07.476Z,20
2018-02-02T02:10:05.232Z,20
2018-02-02T02:12:05.015Z,20.1
2018-02-02T02:14:05.307Z,20
2018-02-02T02:16:07.654Z,20
2018-02-02T02:18:07.205Z,20
2018-02-02T02:20:05.049Z,20
2018-02-02T02:22:05.365Z,20
2018-02-02T02:24:07.702Z,20
2018-02-02T02:26:05.018Z,20
2018-02-02T02:28:05.048Z,20
2018-02-02T02:30:04.772Z,20
2018-02-02T02:32:05.551Z,20
2018-02-02T02:34:05.330Z,20
2018-02-02T02:36:07.652Z,20
2018-02-02T02:38:05.403Z,20
2018-02-02T02:40:05.153Z,20
2018-02-02T02:42:04.921Z,20
2018-02-02T02:44:04.649Z,20
2018-02-02T02:46:05.712Z,20.1
2018-02-02T02:48:05.468Z,20.1
2018-02-02T02:50:05.227Z,20.1
2018-02-02T02:52:04.996Z,20.1
2018-02-02T02:54:04.885Z,20.1
2018-02-02T02:56:07.221Z,20
2018-02-02T02:58:10.076Z,20
2018-02-02T03:00:04.842Z,20
2018-02-02T03:02:05.536Z,20.1
2018-02-02T03:04:05.342Z,20.1
2018-02-02T03:06:05.233Z,20.1
2018-02-02T03:08:07.487Z,20
2018-02-02T03:10:05.445Z,20
2018-02-02T03:12:05.286Z,20
2018-02-02T03:14:10.058Z,20
2018-02-02T03:16:04.810Z,20
2018-02-02T03:18:05.274Z,20.1
2018-02-02T03:20:07.569Z,20.1
2018-02-02T03:22:05.639Z,20
2018-02-02T03:24:05.437Z,20
2018-02-02T03:26:04.721Z,20.1
2018-02-02T03:28:05.570Z,20.1
2018-02-02T03:30:05.321Z,20.1
2018-02-02T03:32:05.174Z,20.1
2018-02-02T03:34:04.971Z,20.1
2018-02-02T03:36:04.716Z,20
2018-02-02T03:38:05.431Z,20
2018-02-02T03:40:05.188Z,20
2018-02-02T03:42:05.769Z,20.1
2018-02-02T03:44:10.611Z,20
2018-02-02T03:46:05.350Z,20
2018-02-02T03:48:05.198Z,20
2018-02-02T03:50:04.964Z,20
2018-02-02T03:52:04.830Z,20
2018-02-02T03:54:05.146Z,20.1
2018-02-02T03:56:05.526Z,20
2018-02-02T03:58:07.827Z,20.1
2018-02-02T04:00:05.146Z,20
2018-02-02T04:02:09.935Z,20
2018-02-02T04:04:09.714Z,20
2018-02-02T04:06:05.007Z,20
2018-02-02T04:08:04.751Z,20
2018-02-02T04:10:13.118Z,20
2018-02-02T04:12:04.873Z,20
2018-02-02T04:14:05.617Z,20
2018-02-02T04:16:05.657Z,20
2018-02-02T04:18:05.585Z,20
2018-02-02T04:20:05.337Z,20
2018-02-02T04:22:05.377Z,20
2018-02-02T04:24:05.196Z,20
2018-02-02T04:26:10.088Z,20
2018-02-02T04:28:05.519Z,20
2018-02-02T04:30:04.817Z,20
2018-02-02T04:32:08.092Z,20
2018-02-02T04:34:04.902Z,20
2018-02-02T04:36:05.248Z,20.1
2018-02-02T04:38:10.070Z,20
2018-02-02T04:40:04.797Z,20
2018-02-02T04:42:05.045Z,20
2018-02-02T04:44:04.810Z,20
2018-02-02T04:46:05.561Z,20
2018-02-02T04:48:05.348Z,20
2018-02-02T04:50:10.152Z,20
2018-02-02T04:52:04.913Z,20
2018-02-02T04:54:04.706Z,20
2018-02-02T04:56:05.457Z,20
2018-02-02T04:58:05.216Z,20.1
2018-02-02T05:00:05.043Z,20.1
2018-02-02T05:02:04.737Z,20
2018-02-02T05:04:10.553Z,20
2018-02-02T05:06:05.305Z,20
2018-02-02T05:08:05.080Z,20.1
2018-02-02T05:10:04.826Z,20.1
2018-02-02T05:12:08.161Z,20
2018-02-02T05:14:04.913Z,20
2018-02-02T05:16:04.982Z,20
2018-02-02T05:18:07.478Z,20
2018-02-02T05:20:07.839Z,20
2018-02-02T05:22:05.570Z,20
2018-02-02T05:24:05.272Z,20
2018-02-02T05:26:10.051Z,20
2018-02-02T05:28:04.812Z,20
2018-02-02T05:30:05.564Z,20
2018-02-02T05:32:07.895Z,20
2018-02-02T05:34:07.132Z,20
2018-02-02T05:36:05.510Z,20
2018-02-02T05:38:05.277Z,20
2018-02-02T05:40:05.907Z,20
2018-02-02T05:42:07.201Z,20
2018-02-02T05:44:04.982Z,20
2018-02-02T05:46:07.899Z,20.1
2018-02-02T05:48:04.925Z,20.1
2018-02-02T05:50:04.712Z,20.1
2018-02-02T05:52:05.555Z,20.1
2018-02-02T05:54:05.036Z,20.1
2018-02-02T05:56:04.762Z,20.1
2018-02-02T05:58:05.620Z,20.1
2018-02-02T06:00:05.413Z,20.1
2018-02-02T06:02:10.704Z,20
2018-02-02T06:04:08.291Z,20
2018-02-02T06:06:05.084Z,20
2018-02-02T06:08:05.360Z,20.1
2018-02-02T06:10:05.138Z,20
2018-02-02T06:12:10.505Z,20
2018-02-02T06:14:05.240Z,20
2018-02-02T06:16:05.040Z,20
2018-02-02T06:18:04.995Z,20
2018-02-02T06:20:14.917Z,20
2018-02-02T06:22:04.696Z,20
2018-02-02T06:24:05.524Z,20
2018-02-02T06:26:12.887Z,20
2018-02-02T06:28:07.485Z,20.1
2018-02-02T06:30:05.267Z,20.1
2018-02-02T06:32:05.022Z,20.1
2018-02-02T06:34:05.413Z,20.1
2018-02-02T06:36:05.136Z,20.1
2018-02-02T06:38:04.932Z,20.1
2018-02-02T06:40:07.785Z,20.1
2018-02-02T06:42:05.081Z,20.1
2018-02-02T06:44:07.356Z,20.1
2018-02-02T06:46:05.063Z,20
2018-02-02T06:48:04.835Z,20.1
2018-02-02T06:50:05.654Z,20
2018-02-02T06:52:05.197Z,20
2018-02-02T06:54:05.080Z,20
2018-02-02T06:56:05.641Z,20
2018-02-02T06:58:05.414Z,20
2018-02-02T07:00:04.713Z,20.1
2018-02-02T07:02:07.655Z,20
2018-02-02T07:04:05.479Z,20
2018-02-02T07:06:04.729Z,20
2018-02-02T07:08:08.286Z,20
2018-02-02T07:10:05.046Z,20
2018-02-02T07:12:07.445Z,20.1
2018-02-02T07:14:05.258Z,20
2018-02-02T07:16:05.023Z,20
2018-02-02T07:18:07.523Z,20
2018-02-02T07:20:05.418Z,20
2018-02-02T07:22:05.168Z,20
2018-02-02T07:24:05.031Z,20
2018-02-02T07:26:04.824Z,20
2018-02-02T07:28:08.204Z,20
2018-02-02T07:30:05.091Z,20
2018-02-02T07:32:05.059Z,20
2018-02-02T07:34:12.433Z,20
2018-02-02T07:36:05.219Z,20
2018-02-02T07:38:07.555Z,20
2018-02-02T07:40:05.611Z,20
2018-02-02T07:42:05.406Z,20
2018-02-02T07:44:07.926Z,20
2018-02-02T07:46:04.650Z,20
2018-02-02T07:48:05.382Z,20
2018-02-02T07:50:04.701Z,20
2018-02-02T07:52:05.488Z,20
2018-02-02T07:54:07.775Z,20
2018-02-02T07:56:05.824Z,20
2018-02-02T07:58:05.300Z,20
2018-02-02T08:00:05.040Z,20
2018-02-02T08:02:07.873Z,20.1
2018-02-02T08:04:04.873Z,20
2018-02-02T08:06:04.622Z,20
2018-02-02T08:08:05.382Z,20
2018-02-02T08:10:07.662Z,20.1
2018-02-02T08:12:05.519Z,20
2018-02-02T08:14:10.330Z,20
2018-02-02T08:16:05.130Z,20
2018-02-02T08:18:07.636Z,20
2018-02-02T08:20:05.364Z,20
2018-02-02T08:22:05.133Z,20
2018-02-02T08:24:07.654Z,20
2018-02-02T08:26:05.409Z,20
2018-02-02T08:28:05.284Z,20
2018-02-02T08:30:07.574Z,20
2018-02-02T08:32:05.210Z,20
2018-02-02T08:34:07.466Z,20
2018-02-02T08:36:10.300Z,20
2018-02-02T08:38:04.669Z,20
2018-02-02T08:40:05.389Z,20
2018-02-02T08:42:07.473Z,20
2018-02-02T08:44:05.725Z,20
2018-02-02T08:46:05.498Z,20
2018-02-02T08:48:07.924Z,20
2018-02-02T08:50:04.695Z,20
2018-02-02T08:52:05.528Z,20
2018-02-02T08:54:08.095Z,20
2018-02-02T08:56:05.602Z,20
2018-02-02T08:58:05.256Z,20
2018-02-02T09:00:05.053Z,20
2018-02-02T09:02:05.054Z,20
2018-02-02T09:04:05.083Z,20
2018-02-02T09:06:04.964Z,20
2018-02-02T09:08:05.063Z,20
2018-02-02T09:10:09.876Z,20
2018-02-02T09:12:05.599Z,20
2018-02-02T09:14:05.378Z,20
2018-02-02T09:16:07.739Z,20
2018-02-02T09:18:04.706Z,20
2018-02-02T09:20:05.512Z,20
2018-02-02T09:22:05.272Z,20
2018-02-02T09:24:05.117Z,20
2018-02-02T09:26:07.671Z,20
2018-02-02T09:28:05.378Z,20
2018-02-02T09:30:05.195Z,20
2018-02-02T09:32:12.938Z,20
2018-02-02T09:34:12.312Z,20
2018-02-02T09:36:05.085Z,20
2018-02-02T09:38:07.424Z,20
2018-02-02T09:40:07.692Z,20
2018-02-02T09:42:05.466Z,20
2018-02-02T09:44:05.062Z,20
2018-02-02T09:46:04.845Z,20
2018-02-02T09:48:05.627Z,20
2018-02-02T09:50:13.002Z,20
2018-02-02T09:52:04.787Z,20
2018-02-02T09:54:05.544Z,20
2018-02-02T09:56:05.310Z,20
2018-02-02T09:58:05.041Z,20
2018-02-02T10:00:05.631Z,20
2018-02-02T10:02:10.469Z,20
2018-02-02T10:04:05.653Z,20
2018-02-02T10:06:05.463Z,20
2018-02-02T10:08:05.216Z,20
2018-02-02T10:10:04.955Z,20
2018-02-02T10:12:04.715Z,20
2018-02-02T10:14:05.492Z,20
2018-02-02T10:16:04.769Z,20
2018-02-02T10:18:04.778Z,20
2018-02-02T10:20:08.370Z,20
2018-02-02T10:22:05.246Z,20
2018-02-02T10:24:05.287Z,20
2018-02-02T10:26:07.636Z,20
2018-02-02T10:28:05.370Z,20
2018-02-02T10:30:05.100Z,20
2018-02-02T10:32:05.133Z,20
2018-02-02T10:34:04.876Z,20
2018-02-02T10:36:05.667Z,20
2018-02-02T10:38:08.269Z,20
2018-02-02T10:40:05.031Z,20
2018-02-02T10:42:07.324Z,20
2018-02-02T10:44:05.888Z,20
2018-02-02T10:46:04.666Z,20
2018-02-02T10:48:05.410Z,20
2018-02-02T10:50:05.179Z,20
2018-02-02T10:52:10.862Z,20
2018-02-02T10:54:05.584Z,20
2018-02-02T10:56:04.871Z,20
2018-02-02T10:58:05.207Z,20
2018-02-02T11:00:05.040Z,20
2018-02-02T11:02:04.801Z,20
2018-02-02T11:04:05.575Z,20
2018-02-02T11:06:05.327Z,20
2018-02-02T11:08:05.167Z,20
2018-02-02T11:10:04.924Z,20
2018-02-02T11:12:04.663Z,20
2018-02-02T11:14:05.472Z,20
2018-02-02T11:16:05.229Z,20
2018-02-02T11:18:05.311Z,20
2018-02-02T11:20:05.282Z,20
2018-02-02T11:22:05.083Z,20
2018-02-02T11:24:05.233Z,20
2018-02-02T11:26:04.987Z,20
2018-02-02T11:28:07.288Z,20
2018-02-02T11:30:05.261Z,20
2018-02-02T11:32:07.568Z,20
2018-02-02T11:34:05.283Z,20
2018-02-02T11:36:05.076Z,20
2018-02-02T11:38:10.175Z,20
2018-02-02T11:40:06.677Z,20
2018-02-02T11:42:05.579Z,20
2018-02-02T11:44:05.782Z,20
2018-02-02T11:46:06.372Z,20
2018-02-02T11:48:05.502Z,20
2018-02-02T11:50:13.403Z,20
2018-02-02T11:52:06.143Z,20
2018-02-02T11:54:09.743Z,20
2018-02-02T11:56:04.878Z,20.1
2018-02-02T11:58:04.636Z,20.1
2018-02-02T12:00:10.406Z,20.1
2018-02-02T12:02:05.201Z,20.1
2018-02-02T12:04:05.150Z,20.1
2018-02-02T12:06:05.581Z,20.1
2018-02-02T12:08:05.354Z,20.1
2018-02-02T12:10:06.105Z,20.1
2018-02-02T12:12:05.209Z,20.1
2018-02-02T12:14:04.665Z,20.1
2018-02-02T12:16:07.515Z,20.1
2018-02-02T12:18:05.017Z,20.1
2018-02-02T12:20:04.786Z,20.1
2018-02-02T12:22:04.722Z,20.1
2018-02-02T12:24:04.839Z,20.1
2018-02-02T12:26:06.098Z,20.1
2018-02-02T12:28:05.548Z,20.1
2018-02-02T12:30:05.044Z,20.1
2018-02-02T12:32:10.069Z,20.1
2018-02-02T12:34:04.898Z,20.1
2018-02-02T12:36:04.941Z,20.1
2018-02-02T12:38:05.412Z,20.1
2018-02-02T12:40:05.242Z,20.1
2018-02-02T12:42:05.549Z,20.1
2018-02-02T12:44:05.764Z,20.1
2018-02-02T12:46:05.762Z,20.1
2018-02-02T12:48:05.610Z,20.1
2018-02-02T12:50:09.967Z,20.1
2018-02-02T12:52:06.503Z,20.1
2018-02-02T12:54:10.087Z,20.1
2018-02-02T12:56:04.816Z,20.1
2018-02-02T12:58:04.694Z,20.1
2018-02-02T13:00:06.486Z,20.1
2018-02-02T13:02:10.221Z,20.1
2018-02-02T13:04:04.908Z,20.1
2018-02-02T13:06:04.650Z,20.1
2018-02-02T13:08:05.285Z,20.1
2018-02-02T13:10:06.304Z,20.1
2018-02-02T13:12:05.371Z,20.1
2018-02-02T13:14:10.261Z,20.1
2018-02-02T13:16:05.155Z,20.1
2018-02-02T13:18:04.672Z,20.1
2018-02-02T13:20:08.299Z,20.1
2018-02-02T13:22:05.415Z,20.1
2018-02-02T13:24:04.663Z,20.1
2018-02-02T13:26:14.263Z,20.1
2018-02-02T13:28:05.737Z,20.1
2018-02-02T13:30:07.771Z,20.1
2018-02-02T13:32:07.483Z,20.1
2018-02-02T13:34:06.533Z,20.1
2018-02-02T13:36:05.836Z,20.1
2018-02-02T13:38:04.925Z,20.1
2018-02-02T13:40:07.229Z,20.1
2018-02-02T13:42:05.116Z,20.1
2018-02-02T13:44:04.862Z,20
2018-02-02T13:46:11.434Z,20
2018-02-02T13:48:04.644Z,20
2018-02-02T13:50:05.769Z,20
2018-02-02T13:52:05.803Z,20
2018-02-02T13:54:05.711Z,20.1
2018-02-02T13:56:05.124Z,20.1
2018-02-02T13:58:08.212Z,20
2018-02-02T14:00:04.704Z,20
2018-02-02T14:02:06.462Z,20
2018-02-02T14:04:04.690Z,20
2018-02-02T14:06:04.630Z,20.1
2018-02-02T14:08:05.528Z,20
2018-02-02T14:10:05.442Z,20.1
2018-02-02T14:12:05.215Z,20
2018-02-02T14:14:05.248Z,20
2018-02-02T14:16:05.299Z,20
2018-02-02T14:18:04.971Z,20
2018-02-02T14:20:07.944Z,20
2018-02-02T14:22:05.280Z,20
2018-02-02T14:24:05.436Z,20
2018-02-02T14:26:05.191Z,20
2018-02-02T14:28:37.459Z,20
2018-02-02T14:30:05.480Z,20
2018-02-02T14:32:05.427Z,20
2018-02-02T14:34:11.422Z,20
2018-02-02T14:36:05.916Z,20
2018-02-02T14:38:11.071Z,20
2018-02-02T14:40:07.360Z,20
2018-02-02T14:42:05.618Z,20
2018-02-02T14:44:05.448Z,20
2018-02-02T14:46:05.179Z,20
2018-02-02T14:48:05.501Z,20
2018-02-02T14:50:05.250Z,20
2018-02-02T14:52:05.277Z,20.1
2018-02-02T14:54:05.016Z,20
2018-02-02T14:56:09.853Z,20.1
2018-02-02T14:58:09.823Z,20.1
2018-02-02T15:00:05.547Z,20.1
2018-02-02T15:02:05.299Z,20.1
2018-02-02T15:04:05.026Z,20.1
2018-02-02T15:06:04.972Z,20.1
2018-02-02T15:08:05.021Z,20.1
2018-02-02T15:10:04.855Z,20.1
2018-02-02T15:12:05.698Z,20.1
2018-02-02T15:14:07.984Z,20.1
2018-02-02T15:16:04.736Z,20.1
2018-02-02T15:18:04.736Z,20.1
2018-02-02T15:20:08.106Z,20.1
2018-02-02T15:22:09.950Z,20.1
2018-02-02T15:24:07.583Z,20.2
2018-02-02T15:26:12.492Z,20.2
2018-02-02T15:28:05.393Z,20.2
2018-02-02T15:30:07.772Z,20.2
2018-02-02T15:32:10.581Z,20.3
2018-02-02T15:34:05.324Z,20.3
2018-02-02T15:36:04.751Z,20.3
2018-02-02T15:38:05.537Z,20.3
2018-02-02T15:40:05.296Z,20.3
2018-02-02T15:42:05.546Z,20.4
2018-02-02T15:44:12.910Z,20.4
2018-02-02T15:46:04.719Z,20.4
2018-02-02T15:48:05.618Z,20.4
2018-02-02T15:50:05.349Z,20.5
2018-02-02T15:52:05.138Z,20.5
2018-02-02T15:54:04.908Z,20.5
2018-02-02T15:56:04.625Z,20.5
2018-02-02T15:58:13.009Z,20.5
2018-02-02T16:00:05.324Z,20.5
2018-02-02T16:02:05.089Z,20.5
2018-02-02T16:04:04.935Z,20.5
2018-02-02T16:06:04.723Z,20.6
2018-02-02T16:08:08.028Z,20.6
2018-02-02T16:10:04.823Z,20.6
2018-02-02T16:12:07.632Z,20.6
2018-02-02T16:14:05.489Z,20.6
2018-02-02T16:16:05.303Z,20.7
2018-02-02T16:18:05.230Z,20.7
2018-02-02T16:20:05.145Z,20.7
2018-02-02T16:22:04.975Z,20.7
2018-02-02T16:24:07.302Z,20.7
2018-02-02T16:26:10.112Z,20.7
2018-02-02T16:28:04.868Z,20.7
2018-02-02T16:30:04.657Z,20.7
2018-02-02T16:32:05.476Z,20.7
2018-02-02T16:34:05.655Z,20.7
2018-02-02T16:36:04.957Z,20.7
2018-02-02T16:38:04.896Z,20.7
2018-02-02T16:40:04.858Z,20.7
2018-02-02T16:42:05.206Z,20.7
2018-02-02T16:44:05.203Z,20.7
2018-02-02T16:46:04.982Z,20.7
2018-02-02T16:48:05.327Z,20.7
2018-02-02T16:50:05.149Z,20.7
2018-02-02T16:52:04.926Z,20.7
2018-02-02T16:54:05.207Z,20.8
2018-02-02T16:56:05.017Z,20.8
2018-02-02T16:58:05.739Z,20.8
2018-02-02T17:00:05.543Z,20.8
2018-02-02T17:02:05.295Z,20.8
2018-02-02T17:04:05.096Z,20.8
2018-02-02T17:06:10.473Z,20.8
2018-02-02T17:08:07.791Z,20.8
2018-02-02T17:10:08.427Z,20.8
2018-02-02T17:12:05.178Z,20.8
2018-02-02T17:14:04.899Z,20.8
2018-02-02T17:16:07.390Z,20.8
2018-02-02T17:18:05.457Z,20.8
2018-02-02T17:20:05.260Z,20.8
2018-02-02T17:22:05.130Z,20.8
2018-02-02T17:24:04.964Z,20.8
2018-02-02T17:26:04.777Z,20.8
2018-02-02T17:28:05.481Z,20.9
2018-02-02T17:30:05.259Z,20.9
2018-02-02T17:32:07.560Z,20.9
2018-02-02T17:34:05.297Z,20.9
2018-02-02T17:36:05.376Z,20.9
2018-02-02T17:38:07.637Z,20.9
2018-02-02T17:40:05.423Z,20.9
2018-02-02T17:42:05.142Z,20.9
2018-02-02T17:44:10.451Z,20.9
2018-02-02T17:46:05.209Z,20.9
2018-02-02T17:48:07.500Z,20.9
2018-02-02T17:50:05.243Z,20.9
2018-02-02T17:52:05.042Z,20.9
2018-02-02T17:54:04.837Z,20.9
2018-02-02T17:56:05.604Z,20.9
2018-02-02T17:58:08.263Z,20.9
2018-02-02T18:00:08.104Z,20.9
2018-02-02T18:02:04.893Z,20.9
2018-02-02T18:04:07.483Z,20.9
2018-02-02T18:06:15.342Z,20.9
2018-02-02T18:08:05.095Z,20.9
2018-02-02T18:10:05.075Z,20.9
2018-02-02T18:12:04.898Z,21
2018-02-02T18:14:07.191Z,21
2018-02-02T18:16:08.577Z,21
2018-02-02T18:18:07.303Z,21
2018-02-02T18:20:05.010Z,21
2018-02-02T18:22:04.839Z,21
2018-02-02T18:24:08.111Z,21
2018-02-02T18:26:04.666Z,21
2018-02-02T18:28:08.029Z,21
2018-02-02T18:30:07.336Z,21
2018-02-02T18:32:05.693Z,21
2018-02-02T18:34:05.554Z,21
2018-02-02T18:36:05.472Z,21
2018-02-02T18:38:05.191Z,21
2018-02-02T18:40:05.100Z,21
2018-02-02T18:42:04.888Z,21
2018-02-02T18:44:04.671Z,21
2018-02-02T18:46:05.416Z,21
2018-02-02T18:48:05.162Z,21
2018-02-02T18:50:04.658Z,21
2018-02-02T18:52:05.432Z,21
2018-02-02T18:54:04.829Z,21
2018-02-02T18:56:10.294Z,21
2018-02-02T18:58:05.773Z,21
2018-02-02T19:00:05.052Z,21
2018-02-02T19:02:04.810Z,21
2018-02-02T19:04:08.154Z,21.1
2018-02-02T19:06:07.408Z,21.1
2018-02-02T19:08:05.152Z,21.1
2018-02-02T19:10:05.142Z,21
2018-02-02T19:12:05.162Z,21.1
2018-02-02T19:14:04.973Z,21.1
2018-02-02T19:16:07.782Z,21.1
2018-02-02T19:18:09.823Z,21.1
2018-02-02T19:20:05.567Z,21.1
2018-02-02T19:22:05.454Z,21.1
2018-02-02T19:24:04.810Z,21.1
2018-02-02T19:26:05.080Z,21.1
2018-02-02T19:28:10.214Z,21.1
2018-02-02T19:30:04.912Z,21.1
2018-02-02T19:32:07.262Z,21.1
2018-02-02T19:34:08.066Z,21.1
2018-02-02T19:36:07.517Z,21.1
2018-02-02T19:38:05.278Z,21.1
2018-02-02T19:40:10.110Z,21.1
2018-02-02T19:42:09.978Z,21.1
2018-02-02T19:44:04.847Z,21.1
2018-02-02T19:46:05.934Z,21.2
2018-02-02T19:48:10.379Z,21.1
2018-02-02T19:50:07.702Z,21.1
2018-02-02T19:52:05.518Z,21.1
2018-02-02T19:54:10.359Z,21.1
2018-02-02T19:56:05.080Z,21.1
2018-02-02T19:58:05.093Z,21.2
2018-02-02T20:00:05.200Z,21.2
2018-02-02T20:02:04.991Z,21.2
2018-02-02T20:04:04.796Z,21.3
2018-02-02T20:06:05.565Z,21.2
2018-02-02T20:08:05.410Z,21.3
2018-02-02T20:10:05.209Z,21.3
2018-02-02T20:12:05.482Z,21.3
2018-02-02T20:14:05.170Z,21.4
2018-02-02T20:16:07.811Z,21.5
2018-02-02T20:18:04.833Z,21.5
2018-02-02T20:20:04.630Z,21.6
2018-02-02T20:22:05.402Z,21.7
2018-02-02T20:24:05.329Z,21.7
2018-02-02T20:26:07.191Z,21.9
2018-02-02T20:28:07.765Z,21.9
2018-02-02T20:30:08.064Z,22
2018-02-02T20:32:07.344Z,22
2018-02-02T20:34:05.349Z,22
2018-02-02T20:36:07.196Z,22.1
2018-02-02T20:38:05.089Z,22.1
2018-02-02T20:40:04.931Z,22.1
2018-02-02T20:42:07.182Z,22.3
2018-02-02T20:44:07.978Z,22.3
2018-02-02T20:46:05.150Z,22.3
2018-02-02T20:48:05.217Z,22.4
2018-02-02T20:50:04.986Z,22.4
2018-02-02T20:52:04.772Z,22.5
2018-02-02T20:54:05.527Z,22.5
2018-02-02T20:56:09.955Z,22.6
2018-02-02T20:58:07.336Z,22.6
2018-02-02T21:00:05.099Z,22.6
2018-02-02T21:02:04.850Z,22.7
2018-02-02T21:04:05.951Z,22.7
2018-02-02T21:06:05.323Z,22.7
2018-02-02T21:08:05.100Z,22.7
2018-02-02T21:10:05.428Z,22.8
2018-02-02T21:12:05.210Z,22.8
2018-02-02T21:14:07.501Z,22.8
2018-02-02T21:16:05.341Z,22.8
2018-02-02T21:18:07.840Z,22.9
2018-02-02T21:20:06.454Z,22.9
2018-02-02T21:22:05.256Z,22.9
2018-02-02T21:24:05.001Z,22.8
2018-02-02T21:26:04.769Z,22.7
2018-02-02T21:28:05.582Z,22.6
2018-02-02T21:30:05.587Z,22.5
2018-02-02T21:32:04.916Z,22.4
2018-02-02T21:34:04.763Z,22.4
2018-02-02T21:36:05.580Z,22.4
2018-02-02T21:38:07.970Z,22.2
2018-02-02T21:40:04.971Z,22.3
2018-02-02T21:42:14.979Z,22.2
2018-02-02T21:44:04.816Z,22.2
2018-02-02T21:46:05.593Z,22.2
2018-02-02T21:48:05.388Z,22.1
2018-02-02T21:50:04.645Z,22.1
2018-02-02T21:52:05.715Z,22.1
2018-02-02T21:54:05.476Z,22
2018-02-02T21:56:04.815Z,22
2018-02-02T21:58:13.169Z,22
2018-02-02T22:00:05.149Z,22
2018-02-02T22:02:04.882Z,22
2018-02-02T22:04:08.197Z,22
2018-02-02T22:06:04.652Z,22
2018-02-02T22:08:05.452Z,22
2018-02-02T22:10:05.252Z,21.9
2018-02-02T22:12:04.968Z,22
2018-02-02T22:14:12.328Z,22
2018-02-02T22:16:07.684Z,21.9
2018-02-02T22:18:08.340Z,21.9
2018-02-02T22:20:05.067Z,21.9
2018-02-02T22:22:05.352Z,21.9
2018-02-02T22:24:07.854Z,21.9
2018-02-02T22:26:04.621Z,21.9
2018-02-02T22:28:08.103Z,21.9
2018-02-02T22:30:04.862Z,21.8
2018-02-02T22:32:05.631Z,21.8
2018-02-02T22:34:05.452Z,21.8
2018-02-02T22:36:07.725Z,21.8
2018-02-02T22:38:10.564Z,21.7
2018-02-02T22:40:05.573Z,21.8
2018-02-02T22:42:05.551Z,21.8
2018-02-02T22:44:09.906Z,21.7
2018-02-02T22:46:07.508Z,21.7
2018-02-02T22:48:05.327Z,21.7
2018-02-02T22:50:04.752Z,21.7
2018-02-02T22:52:07.755Z,21.7
2018-02-02T22:54:05.477Z,21.7
2018-02-02T22:56:05.256Z,21.7
2018-02-02T22:58:05.583Z,21.7
2018-02-02T23:00:05.332Z,21.7
2018-02-02T23:02:05.166Z,21.7
2018-02-02T23:04:05.200Z,21.7
2018-02-02T23:06:04.927Z,21.7
2018-02-02T23:08:06.170Z,21.7
2018-02-02T23:10:04.953Z,21.7
2018-02-02T23:12:10.029Z,21.6
2018-02-02T23:14:04.805Z,21.6
2018-02-02T23:16:07.331Z,21.6
2018-02-02T23:18:05.328Z,21.6
2018-02-02T23:20:05.105Z,21.6
2018-02-02T23:22:07.942Z,21.5
2018-02-02T23:24:05.701Z,21.5
2018-02-02T23:26:07.618Z,21.5
2018-02-02T23:28:05.659Z,21.5
2018-02-02T23:30:05.422Z,21.5
2018-02-02T23:32:04.678Z,21.5
2018-02-02T23:34:05.795Z,21.5
2018-02-02T23:36:05.567Z,21.5
2018-02-02T23:38:07.867Z,21.5
2018-02-02T23:40:04.647Z,21.5
2018-02-02T23:42:05.458Z,21.5
2018-02-02T23:44:05.282Z,21.5
2018-02-02T23:46:05.024Z,21.4
2018-02-02T23:48:04.872Z,21.5
2018-02-02T23:50:04.713Z,21.4
2018-02-02T23:52:05.089Z,21.5
2018-02-02T23:54:04.865Z,21.4
2018-02-02T23:56:05.594Z,21.4
2018-02-02T23:58:04.890Z,21.4
